createdAt,value
2023-02-04T00:00:49.229Z,99062.25
2023-02-04T00:02:21.406Z,99056.22
2023-02-04T00:03:54.571Z,99048.50
2023-02-04T00:05:29.278Z,99046.72
2023-02-04T00:07:02.421Z,99046.72
2023-02-04T00:08:37.634Z,99037.22
2023-02-04T00:10:11.808Z,99038.13
2023-02-04T00:11:45.813Z,99039.88
2023-02-04T00:13:18.910Z,99038.13
2023-02-04T00:14:51.152Z,99032.97
2023-02-04T00:16:24.305Z,99026.00
2023-02-04T00:17:57.830Z,99027.78
2023-02-04T00:19:30.907Z,99022.63
2023-02-04T00:21:06.024Z,99025.28
2023-02-04T00:22:39.132Z,99015.75
2023-02-04T00:24:11.408Z,99016.63
2023-02-04T00:25:44.511Z,99021.81
2023-02-04T00:27:17.503Z,99007.94
2023-02-04T00:28:50.691Z,99015.75
2023-02-04T00:30:22.990Z,99008.84
2023-02-04T00:31:56.542Z,99000.16
2023-02-04T00:33:30.143Z,98997.56
2023-02-04T00:35:04.850Z,98996.66
2023-02-04T00:36:39.473Z,98988.81
2023-02-04T00:38:12.785Z,98988.81
2023-02-04T00:39:46.974Z,98992.31
2023-02-04T00:41:20.353Z,98994.94
2023-02-04T00:42:53.630Z,98991.50
2023-02-04T00:44:25.929Z,98981.94
2023-02-04T00:45:59.437Z,98982.81
2023-02-04T00:47:32.690Z,98979.38
2023-02-04T00:49:10.571Z,98970.69
2023-02-04T00:50:43.741Z,98974.16
2023-02-04T00:52:19.254Z,98978.50
2023-02-04T00:53:53.550Z,98975.91
2023-02-04T00:55:26.916Z,98966.31
2023-02-04T00:57:00.439Z,98968.91
2023-02-04T00:58:34.008Z,98957.63
2023-02-04T01:00:09.000Z,98956.72
2023-02-04T01:01:42.313Z,98951.44
2023-02-04T01:03:15.469Z,98945.38
2023-02-04T01:04:48.845Z,98944.47
2023-02-04T01:06:22.766Z,98944.47
2023-02-04T01:07:57.977Z,98942.66
2023-02-04T01:09:32.469Z,98937.44
2023-02-04T01:11:05.857Z,98927.00
2023-02-04T01:12:39.082Z,98922.69
2023-02-04T01:14:12.638Z,98920.00
2023-02-04T01:15:44.819Z,98919.97
2023-02-04T01:17:19.269Z,98914.72
2023-02-04T01:18:55.969Z,98907.75
2023-02-04T01:20:31.219Z,98902.50
2023-02-04T01:22:03.447Z,98899.00
2023-02-04T01:23:38.302Z,98887.72
2023-02-04T01:25:12.046Z,98892.09
2023-02-04T01:26:48.659Z,98885.09
2023-02-04T01:28:23.039Z,98871.19
2023-02-04T01:29:55.470Z,98866.75
2023-02-04T01:31:31.461Z,98862.44
2023-02-04T01:33:04.850Z,98851.13
2023-02-04T01:34:36.966Z,98852.88
2023-02-04T01:36:10.625Z,98838.94
2023-02-04T01:37:43.800Z,98845.03
2023-02-04T01:39:17.568Z,98838.03
2023-02-04T01:40:53.719Z,98836.31
2023-02-04T01:42:28.428Z,98836.22
2023-02-04T01:44:01.616Z,98833.56
2023-02-04T01:45:35.836Z,98835.25
2023-02-04T01:47:09.130Z,98835.25
2023-02-04T01:48:42.765Z,98824.78
2023-02-04T01:50:18.485Z,98823.84
2023-02-04T01:51:52.025Z,98822.09
2023-02-04T01:53:27.600Z,98809.88
2023-02-04T01:55:02.210Z,98804.66
2023-02-04T01:56:35.703Z,98811.59
2023-02-04T01:58:11.680Z,98811.53
2023-02-04T01:59:45.494Z,98800.19
2023-02-04T02:01:37.141Z,98795.88
2023-02-04T02:03:12.168Z,98793.22
2023-02-04T02:04:45.496Z,98791.44
2023-02-04T02:06:18.597Z,98780.16
2023-02-04T02:07:57.681Z,98783.63
2023-02-04T02:09:33.281Z,98781.91
2023-02-04T02:11:08.133Z,98785.38
2023-02-04T02:12:40.812Z,98778.34
2023-02-04T02:14:15.207Z,98778.28
2023-02-04T02:15:49.338Z,98775.63
2023-02-04T02:17:21.552Z,98769.47
2023-02-04T02:18:54.794Z,98774.66
2023-02-04T02:20:29.862Z,98775.44
2023-02-04T02:22:10.589Z,98774.50
2023-02-04T02:23:51.037Z,98780.63
2023-02-04T02:25:24.682Z,98789.41
2023-02-04T02:26:59.715Z,98784.16
2023-02-04T02:28:32.831Z,98771.94
2023-02-04T02:30:07.879Z,98758.84
2023-02-04T02:31:41.799Z,98763.19
2023-02-04T02:33:17.326Z,98765.94
2023-02-04T02:34:50.447Z,98757.38
2023-02-04T02:36:24.135Z,98768.72
2023-02-04T02:37:58.026Z,98773.00
2023-02-04T02:39:31.906Z,98769.47
2023-02-04T02:41:09.031Z,98772.09
2023-02-04T02:42:44.167Z,98768.63
2023-02-04T02:44:19.128Z,98766.06
2023-02-04T02:45:53.086Z,98766.94
2023-02-04T02:47:26.704Z,98763.44
2023-02-04T02:49:00.334Z,98762.50
2023-02-04T02:50:34.797Z,98759.03
2023-02-04T02:52:10.606Z,98754.63
2023-02-04T02:53:43.821Z,98752.06
2023-02-04T02:55:20.987Z,98750.34
2023-02-04T02:56:54.769Z,98747.72
2023-02-04T02:58:32.812Z,98752.03
2023-02-04T03:00:15.521Z,98752.00
2023-02-04T03:01:54.246Z,98738.03
2023-02-04T03:03:31.428Z,98731.97
2023-02-04T03:05:04.949Z,98743.25
2023-02-04T03:06:37.691Z,98739.88
2023-02-04T03:08:12.546Z,98736.47
2023-02-04T03:09:45.833Z,98745.25
2023-02-04T03:11:20.423Z,98741.78
2023-02-04T03:12:54.181Z,98737.41
2023-02-04T03:14:28.225Z,98734.88
2023-02-04T03:16:01.139Z,98739.16
2023-02-04T03:17:35.825Z,98745.31
2023-02-04T03:19:09.960Z,98731.38
2023-02-04T03:20:44.150Z,98731.53
2023-02-04T03:22:17.533Z,98733.25
2023-02-04T03:23:51.511Z,98732.34
2023-02-04T03:25:26.655Z,98736.72
2023-02-04T03:27:02.557Z,98729.72
2023-02-04T03:28:40.217Z,98725.38
2023-02-04T03:30:15.919Z,98727.13
2023-02-04T03:31:49.188Z,98721.06
2023-02-04T03:33:22.963Z,98724.50
2023-02-04T03:34:56.188Z,98717.50
2023-02-04T03:36:29.478Z,98719.22
2023-02-04T03:38:02.618Z,98729.66
2023-02-04T03:39:36.281Z,98727.91
2023-02-04T03:41:09.669Z,98734.94
2023-02-04T03:42:44.536Z,98727.94
2023-02-04T03:44:18.878Z,98726.16
2023-02-04T03:45:52.323Z,98723.50
2023-02-04T03:47:25.487Z,98737.47
2023-02-04T03:48:58.984Z,98738.28
2023-02-04T03:50:32.314Z,98736.56
2023-02-04T03:52:06.487Z,98721.75
2023-02-04T03:53:39.616Z,98719.06
2023-02-04T03:55:11.892Z,98713.94
2023-02-04T03:56:44.941Z,98698.25
2023-02-04T03:58:20.185Z,98695.75
2023-02-04T03:59:52.301Z,98696.69
2023-02-04T04:01:25.802Z,98697.59
2023-02-04T04:02:59.148Z,98688.94
2023-02-04T04:04:31.668Z,98695.09
2023-02-04T04:06:06.469Z,98679.53
2023-02-04T04:07:40.031Z,98676.84
2023-02-04T04:09:13.240Z,98685.53
2023-02-04T04:10:46.597Z,98695.09
2023-02-04T04:12:18.815Z,98693.38
2023-02-04T04:13:53.527Z,98686.34
2023-02-04T04:15:26.691Z,98691.66
2023-02-04T04:16:59.929Z,98688.16
2023-02-04T04:18:32.805Z,98685.53
2023-02-04T04:20:06.961Z,98677.72
2023-02-04T04:21:40.124Z,98676.81
2023-02-04T04:23:12.354Z,98675.03
2023-02-04T04:24:45.590Z,98679.38
2023-02-04T04:26:19.061Z,98688.00
2023-02-04T04:27:52.327Z,98687.94
2023-02-04T04:29:26.960Z,98686.22
2023-02-04T04:31:00.234Z,98686.25
2023-02-04T04:32:32.526Z,98686.19
2023-02-04T04:34:05.718Z,98686.19
2023-02-04T04:35:38.922Z,98679.28
2023-02-04T04:37:12.096Z,98674.13
2023-02-04T04:38:44.501Z,98682.00
2023-02-04T04:40:17.655Z,98664.66
2023-02-04T04:41:51.008Z,98678.63
2023-02-04T04:43:24.276Z,98669.03
2023-02-04T04:44:58.114Z,98658.66
2023-02-04T04:46:31.282Z,98647.44
2023-02-04T04:48:04.857Z,98657.13
2023-02-04T04:49:37.065Z,98671.06
2023-02-04T04:51:10.356Z,98674.47
2023-02-04T04:52:42.555Z,98667.59
2023-02-04T04:54:15.716Z,98667.50
2023-02-04T04:55:48.828Z,98670.09
2023-02-04T04:57:21.324Z,98669.22
2023-02-04T04:58:54.457Z,98672.63
2023-02-04T05:00:29.460Z,98669.03
2023-02-04T05:02:02.683Z,98673.38
2023-02-04T05:03:35.092Z,98666.38
2023-02-04T05:05:08.381Z,98672.50
2023-02-04T05:06:41.554Z,98665.47
2023-02-04T05:08:16.993Z,98673.31
2023-02-04T05:09:50.218Z,98668.94
2023-02-04T05:11:23.331Z,98668.94
2023-02-04T05:12:56.432Z,98677.56
2023-02-04T05:14:29.684Z,98680.16
2023-02-04T05:16:04.294Z,98648.16
2023-02-04T05:17:37.508Z,98665.28
2023-02-04T05:19:10.657Z,98669.47
2023-02-04T05:20:43.714Z,98673.72
2023-02-04T05:22:16.934Z,98670.16
2023-02-04T05:23:50.032Z,98668.34
2023-02-04T05:25:23.454Z,98680.53
2023-02-04T05:26:56.573Z,98678.69
2023-02-04T05:28:30.090Z,98684.69
2023-02-04T05:30:03.199Z,98687.19
2023-02-04T05:31:38.236Z,98683.63
2023-02-04T05:33:11.285Z,98685.34
2023-02-04T05:34:43.590Z,98683.59
2023-02-04T05:36:17.973Z,98687.09
2023-02-04T05:37:51.432Z,98691.44
2023-02-04T05:39:24.573Z,98692.28
2023-02-04T05:40:56.934Z,98688.81
2023-02-04T05:42:30.077Z,98695.72
2023-02-04T05:44:03.446Z,98701.81
2023-02-04T05:45:36.591Z,98699.97
2023-02-04T05:47:11.430Z,98693.88
2023-02-04T05:48:44.513Z,98693.88
2023-02-04T05:50:17.885Z,98693.88
2023-02-04T05:51:51.005Z,98696.59
2023-02-04T05:53:26.119Z,98706.31
2023-02-04T05:54:59.440Z,98710.72
2023-02-04T05:56:32.646Z,98706.47
2023-02-04T05:58:05.725Z,98712.66
2023-02-04T05:59:38.969Z,98717.06
2023-02-04T06:01:12.169Z,98715.41
2023-02-04T06:02:46.641Z,98722.38
2023-02-04T06:04:19.991Z,98712.75
2023-02-04T06:05:53.735Z,98719.69
2023-02-04T06:07:26.942Z,98709.16
2023-02-04T06:09:00.111Z,98716.03
2023-02-04T06:10:33.554Z,98706.38
2023-02-04T06:12:07.221Z,98710.66
2023-02-04T06:13:40.318Z,98707.13
2023-02-04T06:15:13.460Z,98709.72
2023-02-04T06:16:46.706Z,98718.44
2023-02-04T06:18:21.717Z,98711.44
2023-02-04T06:19:54.816Z,98713.16
2023-02-04T06:21:28.137Z,98713.94
2023-02-04T06:23:00.257Z,98721.78
2023-02-04T06:24:33.750Z,98714.75
2023-02-04T06:26:06.088Z,98725.13
2023-02-04T06:27:39.398Z,98714.56
2023-02-04T06:29:12.605Z,98717.91
2023-02-04T06:30:46.110Z,98727.34
2023-02-04T06:32:19.939Z,98726.41
2023-02-04T06:33:54.505Z,98724.63
2023-02-04T06:35:27.731Z,98724.63
2023-02-04T06:37:01.052Z,98735.88
2023-02-04T06:38:34.234Z,98721.06
2023-02-04T06:40:09.054Z,98721.91
2023-02-04T06:41:42.171Z,98716.59
2023-02-04T06:43:15.666Z,98710.47
2023-02-04T06:44:48.777Z,98703.44
2023-02-04T06:46:21.077Z,98713.00
2023-02-04T06:47:54.285Z,98710.34
2023-02-04T06:49:29.280Z,98706.00
2023-02-04T06:51:02.380Z,98710.25
2023-02-04T06:52:35.566Z,98709.25
2023-02-04T06:54:08.700Z,98711.72
2023-02-04T06:55:42.114Z,98713.31
2023-02-04T06:57:15.204Z,98710.56
2023-02-04T06:58:48.607Z,98706.97
2023-02-04T07:00:22.255Z,98709.47
2023-02-04T07:01:55.515Z,98702.53
2023-02-04T07:03:28.634Z,98702.47
2023-02-04T07:05:03.296Z,98701.56
2023-02-04T07:06:35.316Z,98712.84
2023-02-04T07:08:08.646Z,98709.31
2023-02-04T07:09:40.794Z,98695.38
2023-02-04T07:11:14.062Z,98698.97
2023-02-04T07:12:47.198Z,98703.31
2023-02-04T07:14:20.614Z,98694.66
2023-02-04T07:15:53.763Z,98693.88
2023-02-04T07:17:27.072Z,98687.66
2023-02-04T07:19:00.230Z,98693.66
2023-02-04T07:20:36.095Z,98696.97
2023-02-04T07:22:09.238Z,98695.69
2023-02-04T07:23:42.541Z,98691.91
2023-02-04T07:25:17.972Z,98682.94
2023-02-04T07:26:51.286Z,98695.78
2023-02-04T07:28:24.659Z,98695.59
2023-02-04T07:29:57.885Z,98692.88
2023-02-04T07:31:31.116Z,98698.88
2023-02-04T07:33:03.580Z,98690.09
2023-02-04T07:34:36.738Z,98683.97
2023-02-04T07:36:11.983Z,98691.75
2023-02-04T07:37:45.752Z,98687.38
2023-02-04T07:39:18.162Z,98695.28
2023-02-04T07:40:51.352Z,98676.09
2023-02-04T07:42:23.907Z,98685.81
2023-02-04T07:44:05.920Z,98692.91
2023-02-04T07:45:39.298Z,98693.78
2023-02-04T07:47:12.734Z,98695.59
2023-02-04T07:48:46.171Z,98695.66
2023-02-04T07:50:19.378Z,98695.66
2023-02-04T07:51:54.103Z,98692.19
2023-02-04T07:53:27.233Z,98701.03
2023-02-04T07:55:00.666Z,98697.53
2023-02-04T07:56:33.948Z,98700.97
2023-02-04T07:58:07.315Z,98692.19
2023-02-04T07:59:40.459Z,98701.75
2023-02-04T08:01:14.085Z,98692.19
2023-02-04T08:02:47.387Z,98693.91
2023-02-04T08:04:20.686Z,98694.00
2023-02-04T08:05:53.823Z,98690.56
2023-02-04T08:07:28.689Z,98693.13
2023-02-04T08:09:01.797Z,98692.25
2023-02-04T08:10:35.282Z,98695.72
2023-02-04T08:12:08.482Z,98693.06
2023-02-04T08:13:41.638Z,98684.28
2023-02-04T08:15:14.787Z,98691.22
2023-02-04T08:16:48.033Z,98690.25
2023-02-04T08:18:21.142Z,98685.13
2023-02-04T08:19:54.748Z,98693.63
2023-02-04T08:21:27.841Z,98682.19
2023-02-04T08:23:02.665Z,98684.72
2023-02-04T08:24:35.777Z,98684.56
2023-02-04T08:26:10.549Z,98684.41
2023-02-04T08:27:43.787Z,98689.47
2023-02-04T08:29:17.138Z,98689.31
2023-02-04T08:30:50.350Z,98686.63
2023-02-04T08:32:23.761Z,98687.41
2023-02-04T08:33:56.832Z,98691.75
2023-02-04T08:35:34.673Z,98676.00
2023-02-04T08:37:08.054Z,98678.50
2023-02-04T08:38:42.866Z,98674.91
2023-02-04T08:40:16.436Z,98679.34
2023-02-04T08:41:51.353Z,98667.25
2023-02-04T08:43:24.491Z,98681.13
2023-02-04T08:44:57.683Z,98678.50
2023-02-04T08:46:30.911Z,98672.28
2023-02-04T08:48:04.258Z,98669.66
2023-02-04T08:49:37.435Z,98667.94
2023-02-04T08:51:10.640Z,98663.63
2023-02-04T08:52:43.709Z,98669.66
2023-02-04T08:54:18.507Z,98669.66
2023-02-04T08:55:51.609Z,98673.19
2023-02-04T08:57:25.022Z,98666.97
2023-02-04T08:58:58.195Z,98668.72
2023-02-04T09:00:31.880Z,98665.31
2023-02-04T09:02:05.263Z,98675.00
2023-02-04T09:03:38.870Z,98670.50
2023-02-04T09:05:11.014Z,98667.94
2023-02-04T09:06:44.785Z,98665.28
2023-02-04T09:08:16.913Z,98674.91
2023-02-04T09:09:51.647Z,98662.78
2023-02-04T09:11:24.792Z,98660.28
2023-02-04T09:12:58.067Z,98664.41
2023-02-04T09:14:31.201Z,98661.91
2023-02-04T09:16:04.584Z,98671.41
2023-02-04T09:17:38.412Z,98657.31
2023-02-04T09:19:16.337Z,98652.78
2023-02-04T09:20:49.841Z,98645.78
2023-02-04T09:22:23.025Z,98662.16
2023-02-04T09:23:56.338Z,98647.19
2023-02-04T09:25:30.959Z,98659.34
2023-02-04T09:27:04.163Z,98655.63
2023-02-04T09:28:37.359Z,98653.16
2023-02-04T09:30:11.544Z,98658.13
2023-02-04T09:31:44.917Z,98652.88
2023-02-04T09:33:18.222Z,98658.84
2023-02-04T09:34:51.467Z,98648.22
2023-02-04T09:36:28.529Z,98652.50
2023-02-04T09:38:03.003Z,98649.75
2023-02-04T09:39:36.174Z,98643.75
2023-02-04T09:41:13.391Z,98642.81
2023-02-04T09:42:49.827Z,98645.13
2023-02-04T09:44:26.042Z,98639.69
2023-02-04T09:46:00.051Z,98636.88
2023-02-04T09:47:33.394Z,98630.59
2023-02-04T09:49:06.632Z,98629.44
2023-02-04T09:50:39.843Z,98638.06
2023-02-04T09:52:15.122Z,98632.66
2023-02-04T09:53:49.756Z,98631.50
2023-02-04T09:55:27.127Z,98631.56
2023-02-04T09:57:01.893Z,98633.16
2023-02-04T09:58:36.485Z,98618.19
2023-02-04T10:00:17.257Z,98615.41
2023-02-04T10:01:56.574Z,98622.38
2023-02-04T10:03:30.326Z,98623.09
2023-02-04T10:05:03.541Z,98615.13
2023-02-04T10:06:37.709Z,98616.91
2023-02-04T10:08:15.454Z,98617.66
2023-02-04T10:09:49.535Z,98611.38
2023-02-04T10:11:25.011Z,98614.59
2023-02-04T10:13:03.837Z,98605.81
2023-02-04T10:14:36.960Z,98607.31
2023-02-04T10:16:16.037Z,98601.09
2023-02-04T10:17:50.638Z,98603.66
2023-02-04T10:19:24.787Z,98602.50
2023-02-04T10:21:02.087Z,98604.75
2023-02-04T10:22:35.223Z,98583.63
2023-02-04T10:24:13.586Z,98606.06
2023-02-04T10:25:47.025Z,98595.09
2023-02-04T10:27:20.223Z,98594.06
2023-02-04T10:28:59.936Z,98589.53
2023-02-04T10:30:41.559Z,98594.44
2023-02-04T10:32:28.903Z,98592.47
2023-02-04T10:34:12.453Z,98587.88
2023-02-04T10:35:47.743Z,98582.31
2023-02-04T10:37:22.978Z,98577.69
2023-02-04T10:39:01.762Z,98579.34
2023-02-04T10:40:36.481Z,98577.16
2023-02-04T10:42:22.517Z,98572.38
2023-02-04T10:44:05.497Z,98564.91
2023-02-04T10:45:39.935Z,98572.44
2023-02-04T10:47:18.595Z,98574.28
2023-02-04T10:48:51.759Z,98561.78
2023-02-04T10:50:26.856Z,98542.41
2023-02-04T10:52:00.191Z,98558.22
2023-02-04T10:53:50.766Z,98554.66
2023-02-04T10:55:25.479Z,98550.84
2023-02-04T10:56:59.825Z,98557.34
2023-02-04T10:58:33.700Z,98557.03
2023-02-04T11:00:17.684Z,98550.66
2023-02-04T11:01:50.922Z,98555.16
2023-02-04T11:03:26.159Z,98526.91
2023-02-04T11:04:59.542Z,98538.63
2023-02-04T11:06:33.536Z,98530.78
2023-02-04T11:08:21.960Z,98531.88
2023-02-04T11:09:56.029Z,98535.06
2023-02-04T11:11:29.265Z,98530.53
2023-02-04T11:13:05.030Z,98533.28
2023-02-04T11:14:38.192Z,98534.69
2023-02-04T11:16:27.034Z,98526.09
2023-02-04T11:18:04.640Z,98526.91
2023-02-04T11:19:40.077Z,98525.97
2023-02-04T11:21:18.712Z,98512.16
2023-02-04T11:22:54.271Z,98517.03
2023-02-04T11:24:33.893Z,98521.06
2023-02-04T11:26:10.268Z,98516.38
2023-02-04T11:27:43.902Z,98513.44
2023-02-04T11:29:35.110Z,98517.34
2023-02-04T11:31:26.623Z,98497.53
2023-02-04T11:33:03.658Z,98508.59
2023-02-04T11:34:48.936Z,98495.84
2023-02-04T11:36:22.156Z,98493.84
2023-02-04T11:37:56.083Z,98502.31
2023-02-04T11:39:33.267Z,98495.53
2023-02-04T11:41:07.461Z,98500.84
2023-02-04T11:42:42.838Z,98500.13
2023-02-04T11:44:17.462Z,98504.56
2023-02-04T11:46:01.598Z,98504.81
2023-02-04T11:47:37.862Z,98494.97
2023-02-04T11:49:19.458Z,98497.16
2023-02-04T11:50:57.877Z,98490.03
2023-02-04T11:52:29.980Z,98504.56
2023-02-04T11:54:03.209Z,98506.97
2023-02-04T11:55:47.041Z,98482.72
2023-02-04T11:57:20.582Z,98509.09
2023-02-04T11:58:57.954Z,98499.41
2023-02-04T12:00:34.057Z,98495.38
2023-02-04T12:02:16.178Z,98487.72
2023-02-04T12:03:52.396Z,98491.47
2023-02-04T12:05:37.668Z,98489.63
2023-02-04T12:07:14.243Z,98493.31
2023-02-04T12:08:47.354Z,98478.50
2023-02-04T12:10:27.894Z,98468.66
2023-02-04T12:12:02.909Z,98472.69
2023-02-04T12:13:46.634Z,98466.81
2023-02-04T12:15:25.227Z,98443.59
2023-02-04T12:16:59.016Z,98468.69
2023-02-04T12:18:34.174Z,98466.28
2023-02-04T12:20:09.712Z,98466.91
2023-02-04T12:21:42.822Z,98465.97
2023-02-04T12:23:16.323Z,98450.31
2023-02-04T12:24:49.685Z,98482.97
2023-02-04T12:26:22.828Z,98466.16
2023-02-04T12:27:56.454Z,98456.13
2023-02-04T12:29:29.911Z,98462.41
2023-02-04T12:31:03.192Z,98465.84
2023-02-04T12:32:36.397Z,98476.63
2023-02-04T12:34:09.469Z,98478.97
2023-02-04T12:35:44.489Z,98471.47
2023-02-04T12:37:17.666Z,98474.38
2023-02-04T12:38:50.841Z,98464.25
2023-02-04T12:40:24.178Z,98475.50
2023-02-04T12:41:57.725Z,98475.06
2023-02-04T12:43:31.091Z,98468.91
2023-02-04T12:45:04.460Z,98484.50
2023-02-04T12:46:37.572Z,98474.53
2023-02-04T12:48:11.098Z,98462.41
2023-02-04T12:49:44.192Z,98472.53
2023-02-04T12:51:18.746Z,98472.53
2023-02-04T12:52:53.031Z,98472.41
2023-02-04T12:54:26.450Z,98479.25
2023-02-04T12:55:59.642Z,98460.66
2023-02-04T12:57:33.048Z,98467.00
2023-02-04T12:59:06.433Z,98467.13
2023-02-04T13:00:39.874Z,98467.13
2023-02-04T13:02:13.148Z,98480.72
2023-02-04T13:03:46.373Z,98484.72
2023-02-04T13:05:19.711Z,98481.22
2023-02-04T13:06:54.507Z,98481.94
2023-02-04T13:08:27.721Z,98497.97
2023-02-04T13:10:01.041Z,98508.63
2023-02-04T13:11:34.145Z,98500.72
2023-02-04T13:13:07.544Z,98504.25
2023-02-04T13:14:41.024Z,98503.94
2023-02-04T13:16:14.221Z,98502.59
2023-02-04T13:17:47.381Z,98497.84
2023-02-04T13:19:20.829Z,98493.69
2023-02-04T13:20:54.127Z,98501.72
2023-02-04T13:22:28.975Z,98497.47
2023-02-04T13:24:02.155Z,98504.94
2023-02-04T13:25:35.588Z,98502.09
2023-02-04T13:27:08.734Z,98508.00
2023-02-04T13:28:41.937Z,98507.63
2023-02-04T13:30:16.191Z,98499.97
2023-02-04T13:31:49.952Z,98515.97
2023-02-04T13:33:23.271Z,98522.72
2023-02-04T13:34:56.428Z,98511.53
2023-02-04T13:36:30.467Z,98521.31
2023-02-04T13:38:05.322Z,98512.53
2023-02-04T13:39:38.551Z,98516.69
2023-02-04T13:41:11.941Z,98517.56
2023-02-04T13:42:45.035Z,98517.63
2023-02-04T13:44:18.628Z,98522.78
2023-02-04T13:45:51.864Z,98520.00
2023-02-04T13:47:25.089Z,98522.56
2023-02-04T13:48:58.307Z,98525.19
2023-02-04T13:50:32.136Z,98520.13
2023-02-04T13:52:05.668Z,98518.28
2023-02-04T13:53:40.216Z,98513.13
2023-02-04T13:55:13.333Z,98511.44
2023-02-04T13:56:50.967Z,98510.75
2023-02-04T13:58:24.107Z,98507.38
2023-02-04T13:59:57.252Z,98516.25
2023-02-04T14:01:30.398Z,98520.88
2023-02-04T14:03:03.978Z,98515.34
2023-02-04T14:04:37.099Z,98524.28
2023-02-04T14:06:10.415Z,98517.38
2023-02-04T14:07:43.470Z,98526.00
2023-02-04T14:09:19.004Z,98519.09
2023-02-04T14:10:52.054Z,98532.41
2023-02-04T14:12:25.193Z,98540.16
2023-02-04T14:13:58.445Z,98538.44
2023-02-04T14:15:32.191Z,98543.81
2023-02-04T14:17:05.254Z,98548.47
2023-02-04T14:18:38.415Z,98550.94
2023-02-04T14:20:12.463Z,98554.63
2023-02-04T14:21:46.815Z,98559.63
2023-02-04T14:23:19.943Z,98561.69
2023-02-04T14:24:54.633Z,98565.88
2023-02-04T14:26:27.708Z,98569.38
2023-02-04T14:28:01.441Z,98569.22
2023-02-04T14:29:34.894Z,98580.50
2023-02-04T14:31:08.031Z,98569.25
2023-02-04T14:32:41.103Z,98572.13
2023-02-04T14:34:14.654Z,98573.94
2023-02-04T14:35:47.769Z,98556.91
2023-02-04T14:37:20.976Z,98581.41
2023-02-04T14:38:54.062Z,98577.97
2023-02-04T14:40:32.296Z,98580.75
2023-02-04T14:42:05.970Z,98583.69
2023-02-04T14:43:39.043Z,98577.97
2023-02-04T14:45:13.704Z,98585.19
2023-02-04T14:46:48.274Z,98603.56
2023-02-04T14:48:21.568Z,98596.16
2023-02-04T14:49:54.650Z,98592.75
2023-02-04T14:51:27.782Z,98593.69
2023-02-04T14:53:01.390Z,98592.75
2023-02-04T14:54:34.510Z,98602.41
2023-02-04T14:56:09.277Z,98594.78
2023-02-04T14:57:42.396Z,98596.41
2023-02-04T14:59:15.740Z,98602.59
2023-02-04T15:00:48.886Z,98606.84
2023-02-04T15:02:22.714Z,98606.06
2023-02-04T15:03:55.915Z,98611.31
2023-02-04T15:05:29.571Z,98611.38
2023-02-04T15:07:02.691Z,98617.66
2023-02-04T15:08:35.858Z,98615.81
2023-02-04T15:10:10.884Z,98613.38
2023-02-04T15:11:45.941Z,98622.84
2023-02-04T15:13:19.036Z,98621.94
2023-02-04T15:14:52.187Z,98624.63
2023-02-04T15:16:25.358Z,98626.31
2023-02-04T15:17:59.197Z,98620.22
2023-02-04T15:19:32.373Z,98638.75
2023-02-04T15:21:05.776Z,98634.50
2023-02-04T15:22:39.000Z,98638.03
2023-02-04T15:24:12.802Z,98627.63
2023-02-04T15:25:47.208Z,98645.13
2023-02-04T15:27:21.770Z,98641.69
2023-02-04T15:28:56.076Z,98655.72
2023-02-04T15:30:29.554Z,98652.31
2023-02-04T15:32:01.944Z,98640.97
2023-02-04T15:33:35.088Z,98651.59
2023-02-04T15:35:08.956Z,98656.16
2023-02-04T15:36:42.467Z,98640.47
2023-02-04T15:38:15.690Z,98654.44
2023-02-04T15:39:48.882Z,98658.81
2023-02-04T15:43:15.191Z,98665.03
2023-02-04T15:44:48.340Z,98672.09
2023-02-04T15:46:21.509Z,98673.06
2023-02-04T15:47:54.623Z,98664.41
2023-02-04T15:49:27.777Z,98687.22
2023-02-04T15:51:01.044Z,98682.94
2023-02-04T15:52:34.240Z,98688.28
2023-02-04T15:54:07.425Z,98689.16
2023-02-04T15:55:40.768Z,98696.13
2023-02-04T15:57:13.954Z,98692.47
2023-02-04T15:58:48.566Z,98708.28
2023-02-04T16:00:22.921Z,98713.50
2023-02-04T16:01:56.464Z,98708.34
2023-02-04T16:03:29.659Z,98721.44
2023-02-04T16:05:02.970Z,98708.38
2023-02-04T16:06:36.106Z,98725.28
2023-02-04T16:08:09.457Z,98725.38
2023-02-04T16:09:43.912Z,98728.88
2023-02-04T16:11:17.526Z,98726.22
2023-02-04T16:12:51.454Z,98726.22
2023-02-04T16:14:26.311Z,98728.88
2023-02-04T16:15:59.606Z,98710.69
2023-02-04T16:17:32.784Z,98722.13
2023-02-04T16:19:05.904Z,98739.78
2023-02-04T16:20:39.373Z,98736.34
2023-02-04T16:22:12.523Z,98745.31
2023-02-04T16:23:45.594Z,98752.56
2023-02-04T16:25:18.934Z,98752.66
2023-02-04T16:26:52.407Z,98754.38
2023-02-04T16:28:25.546Z,98761.63
2023-02-04T16:30:00.169Z,98757.47
2023-02-04T16:31:33.360Z,98760.22
2023-02-04T16:33:07.062Z,98763.13
2023-02-04T16:34:40.176Z,98766.56
2023-02-04T16:36:13.839Z,98759.72
2023-02-04T16:37:47.014Z,98763.94
2023-02-04T16:39:20.505Z,98766.47
2023-02-04T16:40:53.697Z,98772.59
2023-02-04T16:42:26.949Z,98779.59
2023-02-04T16:44:00.378Z,98777.97
2023-02-04T16:45:35.206Z,98773.97
2023-02-04T16:47:10.008Z,98774.97
2023-02-04T16:48:43.244Z,98789.03
2023-02-04T16:50:16.710Z,98794.63
2023-02-04T16:51:50.077Z,98786.09
2023-02-04T16:53:23.369Z,98794.06
2023-02-04T16:54:56.609Z,98793.41
2023-02-04T16:56:35.235Z,98800.41
2023-02-04T16:58:08.893Z,98803.22
2023-02-04T16:59:42.137Z,98801.00
2023-02-04T17:01:17.440Z,98820.75
2023-02-04T17:02:50.689Z,98810.63
2023-02-04T17:04:24.283Z,98802.16
2023-02-04T17:05:57.490Z,98815.56
2023-02-04T17:07:30.623Z,98816.81
2023-02-04T17:09:03.804Z,98826.50
2023-02-04T17:10:55.134Z,98829.25
2023-02-04T17:12:28.259Z,98827.66
2023-02-04T17:14:03.506Z,98814.78
2023-02-04T17:15:36.656Z,98838.47
2023-02-04T17:17:11.696Z,98835.94
2023-02-04T17:18:43.776Z,98838.59
2023-02-04T17:20:17.075Z,98845.66
2023-02-04T17:21:50.272Z,98850.16
2023-02-04T17:23:23.684Z,98863.38
2023-02-04T17:24:56.913Z,98874.72
2023-02-04T17:26:30.105Z,98873.88
2023-02-04T17:28:03.371Z,98878.28
2023-02-04T17:29:36.707Z,98882.66
2023-02-04T17:31:10.016Z,98889.75
2023-02-04T17:32:45.595Z,98882.75
2023-02-04T17:34:18.954Z,98882.84
2023-02-04T17:35:52.388Z,98897.69
2023-02-04T17:37:26.112Z,98895.28
2023-02-04T17:38:59.390Z,98911.78
2023-02-04T17:40:33.201Z,98912.72
2023-02-04T17:42:06.922Z,98917.16
2023-02-04T17:43:40.088Z,98916.25
2023-02-04T17:45:13.911Z,98930.19
2023-02-04T17:46:47.070Z,98925.03
2023-02-04T17:48:21.765Z,98928.63
2023-02-04T17:49:54.870Z,98931.41
2023-02-04T17:51:28.223Z,98928.91
2023-02-04T17:53:01.523Z,98926.38
2023-02-04T17:54:35.243Z,98937.66
2023-02-04T17:56:12.028Z,98930.75
2023-02-04T17:57:45.716Z,98935.16
2023-02-04T17:59:18.930Z,98930.81
2023-02-04T18:00:53.730Z,98940.41
2023-02-04T18:02:29.738Z,98944.72
2023-02-04T18:04:05.443Z,98939.50
2023-02-04T18:05:42.703Z,98941.31
2023-02-04T18:07:16.101Z,98943.97
2023-02-04T18:08:49.892Z,98948.28
2023-02-04T18:10:29.375Z,98957.03
2023-02-04T18:12:03.528Z,98958.75
2023-02-04T18:13:36.887Z,98961.31
2023-02-04T18:15:25.194Z,98958.59
2023-02-04T18:17:00.733Z,98957.78
2023-02-04T18:18:37.700Z,98970.78
2023-02-04T18:20:19.480Z,98964.66
2023-02-04T18:21:52.755Z,98970.78
2023-02-04T18:23:28.747Z,98969.09
2023-02-04T18:25:03.405Z,98973.38
2023-02-04T18:26:41.157Z,98984.56
2023-02-04T18:28:17.892Z,98969.84
2023-02-04T18:29:55.477Z,98976.72